createdAt,value
2017-06-04T00:00:04.752Z,17.44
2017-06-04T00:01:06.184Z,17.53
2017-06-04T00:02:07.613Z,17.55
2017-06-04T00:03:09.038Z,17.64
2017-06-04T00:04:10.465Z,17.57
2017-06-04T00:05:11.892Z,17.63
2017-06-04T00:06:13.317Z,17.50
2017-06-04T00:07:14.746Z,17.63
2017-06-04T00:08:16.167Z,17.55
2017-06-04T00:09:17.591Z,17.43
2017-06-04T00:10:19.012Z,17.59
2017-06-04T00:11:20.450Z,17.50
2017-06-04T00:12:21.876Z,17.59
2017-06-04T00:13:23.304Z,17.51
2017-06-04T00:14:24.731Z,17.43
2017-06-04T00:15:26.160Z,17.55
2017-06-04T00:16:27.602Z,17.50
2017-06-04T00:17:29.029Z,17.59
2017-06-04T00:18:30.458Z,17.55
2017-06-04T00:19:31.895Z,17.55
2017-06-04T00:20:33.321Z,17.51
2017-06-04T00:21:34.757Z,17.47
2017-06-04T00:22:36.177Z,17.38
2017-06-04T00:23:37.614Z,17.23
2017-06-04T00:24:39.038Z,17.25
2017-06-04T00:25:40.466Z,17.23
2017-06-04T00:26:41.891Z,17.40
2017-06-04T00:27:43.313Z,17.23
2017-06-04T00:28:44.737Z,17.41
2017-06-04T00:29:46.168Z,17.28
2017-06-04T00:30:47.603Z,17.25
2017-06-04T00:31:49.027Z,17.26
2017-06-04T00:32:50.455Z,17.26
2017-06-04T00:33:51.882Z,16.98
2017-06-04T00:34:53.316Z,17.03
2017-06-04T00:35:54.741Z,17.08
2017-06-04T00:36:56.168Z,17.00
2017-06-04T00:37:57.601Z,17.06
2017-06-04T00:38:59.040Z,17.17
2017-06-04T00:40:00.463Z,17.11
2017-06-04T00:41:01.894Z,16.99
2017-06-04T00:42:03.356Z,17.22
2017-06-04T00:43:04.788Z,17.18
2017-06-04T00:44:06.227Z,17.06
2017-06-04T00:45:07.657Z,17.04
2017-06-04T00:46:09.159Z,16.96
2017-06-04T00:47:10.582Z,16.95
2017-06-04T00:48:12.026Z,16.59
2017-06-04T00:49:13.460Z,16.68
2017-06-04T00:50:14.915Z,16.85
2017-06-04T00:51:16.318Z,16.81
2017-06-04T00:52:17.824Z,16.85
2017-06-04T00:53:19.289Z,16.80
2017-06-04T00:54:20.717Z,16.86
2017-06-04T00:55:22.139Z,16.88
2017-06-04T00:56:23.596Z,16.70
2017-06-04T00:57:25.021Z,16.90
2017-06-04T00:58:26.443Z,16.93
2017-06-04T00:59:27.934Z,17.04
2017-06-04T01:00:29.365Z,16.95
2017-06-04T01:01:30.794Z,16.71
2017-06-04T01:02:32.222Z,16.68
2017-06-04T01:03:33.711Z,16.81
2017-06-04T01:04:35.144Z,16.62
2017-06-04T01:05:36.565Z,16.56
2017-06-04T01:06:38.017Z,16.49
2017-06-04T01:07:39.442Z,16.37
2017-06-04T01:08:40.875Z,16.44
2017-06-04T01:09:42.305Z,16.63
2017-06-04T01:10:43.736Z,16.80
2017-06-04T01:11:45.249Z,16.70
2017-06-04T01:12:46.673Z,16.65
2017-06-04T01:13:48.096Z,16.60
2017-06-04T01:14:49.530Z,16.63
2017-06-04T01:15:50.967Z,16.60
2017-06-04T01:16:52.383Z,16.68
2017-06-04T01:17:53.846Z,16.53
2017-06-04T01:18:55.275Z,16.26
2017-06-04T01:19:56.706Z,16.07
2017-06-04T01:20:58.131Z,16.30
2017-06-04T01:21:59.558Z,16.30
2017-06-04T01:23:00.985Z,16.33
2017-06-04T01:24:02.413Z,16.49
2017-06-04T01:25:03.841Z,16.55
2017-06-04T01:26:05.268Z,16.38
2017-06-04T01:27:06.695Z,16.33
2017-06-04T01:28:08.114Z,16.30
2017-06-04T01:29:09.542Z,15.93
2017-06-04T01:30:10.972Z,16.26
2017-06-04T01:31:12.399Z,16.18
2017-06-04T01:32:13.827Z,16.15
2017-06-04T01:33:15.259Z,16.23
2017-06-04T01:34:16.685Z,16.26
2017-06-04T01:35:18.118Z,16.20
2017-06-04T01:36:19.546Z,16.34
2017-06-04T01:37:20.966Z,16.30
2017-06-04T01:38:22.392Z,16.42
2017-06-04T01:39:23.818Z,16.50
2017-06-04T01:40:25.254Z,16.67
2017-06-04T01:41:27.350Z,16.56
2017-06-04T01:42:28.782Z,16.67
2017-06-04T01:43:30.206Z,16.58
2017-06-04T01:44:31.636Z,16.59
2017-06-04T01:45:33.061Z,16.52
2017-06-04T01:46:34.961Z,16.55
2017-06-04T01:47:36.383Z,16.44
2017-06-04T01:48:37.806Z,16.48
2017-06-04T01:49:39.229Z,16.55
2017-06-04T01:50:40.653Z,16.59
2017-06-04T01:51:42.077Z,16.56
2017-06-04T01:52:43.507Z,16.53
2017-06-04T01:53:44.936Z,16.38
2017-06-04T01:54:46.359Z,16.55
2017-06-04T01:55:47.782Z,16.65
2017-06-04T01:56:49.206Z,16.33
2017-06-04T01:57:50.637Z,16.03
2017-06-04T01:58:52.073Z,16.25
2017-06-04T01:59:53.495Z,16.34
2017-06-04T02:00:54.928Z,16.44
2017-06-04T02:01:56.366Z,16.49
2017-06-04T02:02:57.779Z,16.38
2017-06-04T02:03:59.212Z,16.35
2017-06-04T02:05:00.638Z,16.45
2017-06-04T02:06:02.069Z,16.53
2017-06-04T02:07:03.508Z,16.38
2017-06-04T02:08:04.929Z,16.56
2017-06-04T02:09:06.357Z,16.53
2017-06-04T02:10:07.784Z,16.52
2017-06-04T02:11:09.199Z,16.35
2017-06-04T02:12:10.636Z,16.41
2017-06-04T02:13:12.063Z,16.50
2017-06-04T02:14:13.490Z,16.53
2017-06-04T02:15:14.915Z,16.52
2017-06-04T02:16:16.340Z,16.52
2017-06-04T02:17:17.763Z,16.49
2017-06-04T02:18:19.206Z,16.42
2017-06-04T02:19:20.630Z,16.59
2017-06-04T02:20:22.055Z,16.56
2017-06-04T02:21:23.484Z,16.73
2017-06-04T02:22:24.914Z,16.70
2017-06-04T02:23:26.331Z,16.71
2017-06-04T02:24:27.776Z,16.58
2017-06-04T02:25:29.201Z,16.62
2017-06-04T02:26:30.626Z,16.59
2017-06-04T02:27:32.051Z,16.52
2017-06-04T02:28:33.525Z,16.44
2017-06-04T02:29:34.954Z,16.35
2017-06-04T02:30:36.380Z,16.45
2017-06-04T02:31:37.815Z,16.48
2017-06-04T02:32:39.241Z,16.40
2017-06-04T02:33:40.676Z,16.31
2017-06-04T02:34:42.095Z,16.26
2017-06-04T02:35:43.524Z,16.22
2017-06-04T02:36:44.953Z,16.23
2017-06-04T02:37:46.382Z,16.25
2017-06-04T02:38:47.813Z,16.27
2017-06-04T02:39:49.242Z,16.23
2017-06-04T02:40:50.665Z,16.38
2017-06-04T02:41:52.088Z,16.50
2017-06-04T02:42:53.515Z,16.53
2017-06-04T02:43:54.941Z,16.38
2017-06-04T02:44:56.365Z,16.48
2017-06-04T02:45:57.792Z,16.48
2017-06-04T02:46:59.216Z,16.42
2017-06-04T02:48:00.647Z,16.45
2017-06-04T02:49:02.075Z,16.65
2017-06-04T02:50:03.506Z,16.80
2017-06-04T02:51:04.931Z,16.65
2017-06-04T02:52:06.357Z,16.65
2017-06-04T02:53:07.779Z,16.62
2017-06-04T02:54:09.204Z,16.53
2017-06-04T02:55:10.622Z,16.45
2017-06-04T02:56:12.051Z,16.65
2017-06-04T02:57:13.475Z,16.59
2017-06-04T02:58:14.902Z,16.83
2017-06-04T02:59:16.331Z,16.73
2017-06-04T03:00:18.281Z,16.83
2017-06-04T03:01:19.703Z,16.63
2017-06-04T03:02:21.212Z,16.63
2017-06-04T03:03:22.636Z,16.73
2017-06-04T03:04:24.067Z,16.59
2017-06-04T03:05:25.494Z,16.60
2017-06-04T03:06:26.915Z,16.49
2017-06-04T03:07:28.341Z,16.50
2017-06-04T03:08:29.774Z,16.44
2017-06-04T03:09:31.199Z,16.49
2017-06-04T03:10:32.625Z,16.50
2017-06-04T03:11:34.044Z,16.49
2017-06-04T03:12:35.471Z,16.42
2017-06-04T03:13:36.904Z,16.49
2017-06-04T03:14:38.322Z,16.50
2017-06-04T03:15:39.750Z,16.62
2017-06-04T03:16:41.184Z,16.62
2017-06-04T03:17:42.605Z,16.55
2017-06-04T03:18:44.046Z,16.55
2017-06-04T03:19:45.476Z,16.52
2017-06-04T03:20:46.899Z,16.50
2017-06-04T03:21:48.327Z,16.59
2017-06-04T03:22:49.756Z,16.49
2017-06-04T03:23:51.174Z,16.58
2017-06-04T03:24:52.603Z,16.70
2017-06-04T03:25:54.026Z,16.63
2017-06-04T03:26:55.451Z,16.59
2017-06-04T03:27:56.881Z,16.59
2017-06-04T03:28:58.302Z,16.63
2017-06-04T03:29:59.737Z,16.48
2017-06-04T03:31:01.164Z,16.60
2017-06-04T03:32:02.599Z,16.44
2017-06-04T03:33:04.025Z,16.58
2017-06-04T03:34:05.457Z,16.50
2017-06-04T03:35:06.880Z,16.58
2017-06-04T03:36:08.312Z,16.42
2017-06-04T03:37:09.733Z,16.53
2017-06-04T03:38:11.159Z,16.55
2017-06-04T03:39:12.594Z,16.68
2017-06-04T03:40:14.019Z,16.67
2017-06-04T03:41:15.449Z,16.70
2017-06-04T03:42:16.876Z,16.50
2017-06-04T03:43:18.307Z,16.52
2017-06-04T03:44:19.739Z,16.48
2017-06-04T03:45:21.163Z,16.55
2017-06-04T03:46:22.605Z,16.50
2017-06-04T03:47:24.029Z,16.56
2017-06-04T03:48:25.450Z,16.53
2017-06-04T03:49:26.880Z,16.55
2017-06-04T03:50:28.304Z,16.45
2017-06-04T03:51:29.728Z,16.26
2017-06-04T03:52:31.156Z,16.20
2017-06-04T03:53:32.592Z,16.23
2017-06-04T03:54:34.011Z,16.37
2017-06-04T03:55:35.442Z,16.58
2017-06-04T03:56:36.864Z,16.48
2017-06-04T03:57:38.295Z,16.50
2017-06-04T03:58:39.736Z,16.50
2017-06-04T03:59:41.169Z,16.58
2017-06-04T04:00:42.591Z,16.55
2017-06-04T04:01:44.015Z,16.68
2017-06-04T04:02:45.455Z,16.63
2017-06-04T04:03:46.889Z,16.45
2017-06-04T04:04:48.326Z,16.38
2017-06-04T04:05:49.751Z,16.42
2017-06-04T04:06:51.183Z,16.48
2017-06-04T04:07:52.607Z,16.48
2017-06-04T04:08:54.051Z,16.50
2017-06-04T04:09:55.567Z,16.49
2017-06-04T04:10:57.001Z,16.37
2017-06-04T04:11:58.433Z,16.49
2017-06-04T04:12:59.862Z,16.49
2017-06-04T04:14:01.290Z,16.48
2017-06-04T04:15:02.723Z,16.49
2017-06-04T04:16:04.145Z,16.52
2017-06-04T04:17:05.579Z,16.55
2017-06-04T04:18:07.007Z,16.55
2017-06-04T04:19:08.435Z,16.52
2017-06-04T04:20:09.861Z,16.56
2017-06-04T04:21:11.296Z,16.59
2017-06-04T04:22:12.728Z,16.59
2017-06-04T04:23:14.160Z,16.56
2017-06-04T04:24:15.585Z,16.53
2017-06-04T04:25:17.019Z,16.70
2017-06-04T04:26:18.448Z,16.75
2017-06-04T04:27:19.880Z,16.73
2017-06-04T04:28:21.308Z,16.60
2017-06-04T04:29:22.738Z,16.49
2017-06-04T04:30:24.169Z,16.42
2017-06-04T04:31:25.597Z,16.44
2017-06-04T04:32:27.018Z,16.26
2017-06-04T04:33:28.457Z,16.35
2017-06-04T04:34:29.892Z,16.50
2017-06-04T04:35:31.319Z,16.58
2017-06-04T04:36:32.747Z,16.50
2017-06-04T04:37:34.182Z,16.53
2017-06-04T04:38:35.609Z,16.52
2017-06-04T04:39:37.042Z,16.53
2017-06-04T04:40:38.467Z,16.63
2017-06-04T04:41:39.902Z,16.67
2017-06-04T04:42:41.329Z,16.68
2017-06-04T04:43:42.765Z,16.49
2017-06-04T04:44:44.197Z,16.62
2017-06-04T04:45:45.628Z,16.67
2017-06-04T04:46:47.058Z,16.73
2017-06-04T04:47:48.494Z,16.77
2017-06-04T04:48:49.921Z,16.74
2017-06-04T04:49:51.358Z,16.67
2017-06-04T04:50:52.786Z,16.63
2017-06-04T04:51:54.216Z,16.58
2017-06-04T04:52:55.656Z,16.80
2017-06-04T04:53:57.091Z,16.55
2017-06-04T04:54:58.522Z,16.52
2017-06-04T04:55:59.948Z,16.58
2017-06-04T04:57:01.381Z,16.78
2017-06-04T04:58:02.817Z,16.59
2017-06-04T04:59:04.251Z,16.53
2017-06-04T05:00:05.678Z,16.71
2017-06-04T05:01:07.102Z,16.73
2017-06-04T05:02:08.535Z,16.55
2017-06-04T05:03:09.972Z,16.63
2017-06-04T05:04:11.401Z,16.67
2017-06-04T05:05:12.838Z,16.88
2017-06-04T05:06:14.258Z,16.80
2017-06-04T05:07:15.690Z,16.85
2017-06-04T05:08:17.115Z,16.67
2017-06-04T05:09:18.549Z,16.68
2017-06-04T05:10:19.981Z,16.93
2017-06-04T05:11:21.405Z,17.03
2017-06-04T05:12:22.841Z,17.10
2017-06-04T05:13:24.281Z,16.96
2017-06-04T05:14:25.713Z,16.95
2017-06-04T05:15:27.160Z,16.83
2017-06-04T05:16:28.564Z,16.99
2017-06-04T05:17:29.988Z,17.03
2017-06-04T05:18:31.422Z,16.98
2017-06-04T05:19:32.847Z,17.00
2017-06-04T05:20:34.279Z,16.99
2017-06-04T05:21:35.707Z,17.15
2017-06-04T05:22:37.140Z,17.14
2017-06-04T05:23:38.568Z,17.17
2017-06-04T05:24:40.006Z,17.11
2017-06-04T05:25:41.426Z,17.11
2017-06-04T05:26:42.867Z,16.99
2017-06-04T05:27:44.287Z,17.13
2017-06-04T05:28:45.795Z,17.25
2017-06-04T05:29:47.228Z,17.18
2017-06-04T05:30:48.660Z,17.33
2017-06-04T05:31:50.091Z,17.28
2017-06-04T05:32:51.557Z,17.22
2017-06-04T05:33:52.978Z,17.13
2017-06-04T05:34:54.411Z,17.10
2017-06-04T05:35:55.849Z,17.13
2017-06-04T05:36:57.277Z,17.10
2017-06-04T05:37:58.708Z,16.99
2017-06-04T05:39:00.137Z,16.85
2017-06-04T05:40:01.567Z,16.93
2017-06-04T05:41:03.005Z,17.00
2017-06-04T05:42:04.427Z,16.99
2017-06-04T05:43:05.860Z,17.10
2017-06-04T05:44:07.287Z,17.06
2017-06-04T05:45:08.719Z,17.18
2017-06-04T05:46:10.163Z,17.07
2017-06-04T05:47:11.576Z,17.10
2017-06-04T05:48:13.016Z,17.17
2017-06-04T05:49:14.452Z,17.20
2017-06-04T05:50:15.924Z,17.22
2017-06-04T05:51:17.356Z,17.29
2017-06-04T05:52:18.785Z,17.43
2017-06-04T05:53:20.218Z,17.29
2017-06-04T05:54:21.646Z,17.18
2017-06-04T05:55:23.081Z,17.33
2017-06-04T05:56:24.511Z,17.28
2017-06-04T05:57:25.942Z,17.22
2017-06-04T05:58:27.370Z,17.41
2017-06-04T05:59:28.810Z,17.22
2017-06-04T06:00:30.244Z,17.35
2017-06-04T06:01:31.674Z,17.03
2017-06-04T06:02:33.106Z,17.14
2017-06-04T06:03:34.565Z,17.10
2017-06-04T06:04:35.983Z,17.04
2017-06-04T06:05:37.407Z,17.20
2017-06-04T06:06:38.842Z,17.33
2017-06-04T06:07:40.268Z,17.33
2017-06-04T06:08:41.700Z,17.35
2017-06-04T06:09:43.128Z,17.40
2017-06-04T06:10:44.561Z,17.30
2017-06-04T06:11:46.017Z,17.15
2017-06-04T06:12:47.418Z,17.14
2017-06-04T06:13:48.847Z,17.08
2017-06-04T06:14:50.278Z,17.17
2017-06-04T06:15:51.708Z,17.20
2017-06-04T06:16:53.136Z,17.23
2017-06-04T06:17:54.571Z,17.11
2017-06-04T06:18:56.002Z,17.23
2017-06-04T06:19:57.431Z,17.33
2017-06-04T06:20:58.860Z,17.41
2017-06-04T06:22:00.291Z,17.04
2017-06-04T06:23:01.720Z,17.06
2017-06-04T06:24:03.151Z,17.07
2017-06-04T06:25:04.583Z,17.14
2017-06-04T06:26:06.014Z,17.20
2017-06-04T06:27:07.446Z,17.18
2017-06-04T06:28:08.873Z,17.11
2017-06-04T06:29:10.326Z,17.26
2017-06-04T06:30:11.736Z,16.92
2017-06-04T06:31:13.168Z,16.67
2017-06-04T06:32:14.596Z,16.74
2017-06-04T06:33:16.033Z,16.81
2017-06-04T06:34:17.458Z,16.70
2017-06-04T06:35:18.885Z,16.96
2017-06-04T06:36:20.323Z,17.11
2017-06-04T06:37:21.749Z,17.06
2017-06-04T06:38:23.177Z,17.06
2017-06-04T06:39:24.613Z,17.04
2017-06-04T06:40:26.040Z,17.10
2017-06-04T06:41:27.472Z,17.08
2017-06-04T06:42:28.903Z,17.06
2017-06-04T06:43:30.339Z,16.78
2017-06-04T06:44:31.769Z,16.74
2017-06-04T06:45:33.203Z,16.98
2017-06-04T06:46:34.636Z,17.04
2017-06-04T06:47:36.061Z,17.23
2017-06-04T06:48:37.498Z,17.25
2017-06-04T06:49:38.931Z,17.00
2017-06-04T06:50:40.358Z,17.08
2017-06-04T06:51:41.788Z,16.92
2017-06-04T06:52:43.223Z,17.00
2017-06-04T06:53:44.653Z,16.99
2017-06-04T06:54:46.082Z,16.90
2017-06-04T06:55:47.514Z,16.68
2017-06-04T06:56:48.939Z,16.92
2017-06-04T06:57:50.369Z,16.80
2017-06-04T06:58:51.799Z,16.90
2017-06-04T06:59:53.309Z,16.75
2017-06-04T07:00:54.739Z,16.80
2017-06-04T07:01:56.166Z,16.86
2017-06-04T07:02:57.593Z,16.80
2017-06-04T07:03:59.059Z,16.93
2017-06-04T07:05:00.468Z,16.81
2017-06-04T07:06:01.900Z,16.96
2017-06-04T07:07:03.472Z,17.10
2017-06-04T07:08:04.900Z,17.00
2017-06-04T07:09:06.332Z,16.93
2017-06-04T07:10:07.768Z,16.83
2017-06-04T07:11:09.197Z,16.77
2017-06-04T07:12:10.625Z,16.62
2017-06-04T07:13:12.664Z,16.83
2017-06-04T07:14:14.089Z,16.92
2017-06-04T07:15:15.521Z,16.88
2017-06-04T07:16:16.952Z,16.95
2017-06-04T07:17:18.385Z,16.89
2017-06-04T07:18:19.807Z,16.98
2017-06-04T07:19:21.245Z,17.08
2017-06-04T07:20:22.669Z,17.20
2017-06-04T07:21:24.101Z,17.36
2017-06-04T07:22:25.527Z,17.38
2017-06-04T07:23:26.960Z,17.47
2017-06-04T07:24:28.389Z,17.25
2017-06-04T07:25:29.817Z,17.41
2017-06-04T07:26:31.248Z,17.17
2017-06-04T07:27:32.678Z,17.25
2017-06-04T07:28:34.112Z,17.15
2017-06-04T07:29:35.550Z,17.08
2017-06-04T07:30:36.968Z,17.25
2017-06-04T07:31:38.400Z,17.23
2017-06-04T07:32:39.869Z,17.22
2017-06-04T07:33:41.297Z,17.14
2017-06-04T07:34:42.738Z,17.22
2017-06-04T07:35:44.168Z,17.26
2017-06-04T07:36:45.604Z,17.25
2017-06-04T07:37:47.032Z,17.11
2017-06-04T07:38:48.463Z,16.96
2017-06-04T07:39:49.895Z,16.92
2017-06-04T07:40:51.320Z,17.04
